Time;durP1;ratioP1;P1;durP2;ratioP2;P2;SDS_P1;SDS_P2;PMS_P1;PMS_P2;Temp;Humidity;BMP_temperature;BMP_pressure;BME280_temperature;BME280_humidity;BME280_pressure;Samples;Min_cycle;Max_cycle;Signal;HPM_P1;HPM_P2
2022/05/31 00:02:23;;;;;;;5.32;3.17;;;9.40;99.90;;;;;;5069994;28;20332;-78
2022/05/31 00:04:49;;;;;;;3.83;2.28;;;9.40;99.90;;;;;;5068742;28;20212;-78
2022/05/31 00:07:16;;;;;;;6.45;2.47;;;9.40;99.90;;;;;;5070169;28;20531;-78
2022/05/31 00:09:41;;;;;;;4.25;2.05;;;9.40;99.90;;;;;;5068445;28;20524;-77
2022/05/31 00:12:08;;;;;;;5.57;2.45;;;9.40;99.90;;;;;;5070052;28;20021;-77
2022/05/31 00:14:33;;;;;;;5.35;2.17;;;9.40;99.90;;;;;;5068620;28;20028;-77
2022/05/31 00:17:00;;;;;;;4.35;2.20;;;9.40;99.90;;;;;;5070180;28;20428;-78
2022/05/31 00:19:25;;;;;;;5.03;2.42;;;9.40;99.90;;;;;;5068228;28;20029;-79
2022/05/31 00:22:13;;;;;;;4.13;2.63;;;9.40;99.90;;;;;;5069846;28;20039;-78
2022/05/31 00:24:40;;;;;;;7.65;2.70;;;9.50;99.90;;;;;;5068576;28;20346;-76
2022/05/31 00:27:07;;;;;;;6.32;2.33;;;9.40;99.90;;;;;;5068663;28;20511;-78
2022/05/31 00:29:47;;;;;;;3.00;2.13;;;9.40;99.90;;;;;;5067732;28;20493;-77
2022/05/31 00:32:17;;;;;;;9.68;2.80;;;9.40;99.90;;;;;;5068366;28;20024;-76
2022/05/31 00:34:55;;;;;;;6.07;2.90;;;9.30;99.90;;;;;;5069622;28;20228;-76
2022/05/31 00:37:35;;;;;;;6.25;2.40;;;9.30;99.90;;;;;;5068256;28;20024;-76
2022/05/31 00:40:22;;;;;;;4.78;2.35;;;9.30;99.90;;;;;;5067860;28;20024;-76
2022/05/31 00:43:11;;;;;;;4.97;2.65;;;9.30;99.90;;;;;;5067970;28;20032;-76
2022/05/31 00:45:54;;;;;;;3.67;2.40;;;9.30;99.90;;;;;;5068405;28;20021;-79
2022/05/31 00:48:23;;;;;;;3.78;2.50;;;9.30;99.90;;;;;;5068654;28;20493;-79
2022/05/31 00:51:06;;;;;;;2.30;2.00;;;9.30;99.90;;;;;;5069326;28;20028;-78
2022/05/31 00:53:37;;;;;;;4.68;1.90;;;9.30;99.90;;;;;;5068343;28;20046;-79
2022/05/31 00:56:09;;;;;;;6.68;2.30;;;9.30;99.90;;;;;;5068174;28;20024;-79
2022/05/31 00:58:38;;;;;;;4.88;2.00;;;9.20;99.90;;;;;;5069105;28;20033;-78
2022/05/31 01:01:09;;;;;;;4.85;2.08;;;9.20;99.90;;;;;;5067570;28;20031;-79
2022/05/31 01:03:39;;;;;;;2.97;1.90;;;9.10;99.90;;;;;;5067938;28;20016;-79
2022/05/31 01:06:05;;;;;;;4.25;2.30;;;9.00;99.90;;;;;;5067968;28;20056;-78
2022/05/31 01:08:31;;;;;;;3.30;2.17;;;9.00;99.90;;;;;;5068215;28;20111;-78
2022/05/31 01:10:57;;;;;;;3.95;2.38;;;8.90;99.90;;;;;;5068651;28;20048;-78
2022/05/31 01:13:23;;;;;;;4.10;2.30;;;8.90;99.90;;;;;;5067958;28;20666;-79
2022/05/31 01:15:50;;;;;;;3.67;2.58;;;8.80;99.90;;;;;;5069044;28;20457;-79
2022/05/31 01:18:16;;;;;;;5.38;2.00;;;8.80;99.90;;;;;;5067912;28;20025;-79
2022/05/31 01:20:41;;;;;;;9.70;2.60;;;8.80;99.90;;;;;;5068588;28;20074;-79
2022/05/31 01:23:12;;;;;;;2.45;1.90;;;8.80;99.90;;;;;;5067920;28;20017;-78
2022/05/31 01:26:03;;;;;;;4.25;2.22;;;8.70;99.90;;;;;;5068986;28;20067;-78
2022/05/31 01:28:43;;;;;;;;;;;8.80;99.90;;;;;;5069627;28;20321;-77
2022/05/31 01:31:57;;;;;;;4.78;2.22;;;8.70;99.90;;;;;;5066991;28;19905;-76
2022/05/31 01:34:45;;;;;;;5.53;2.15;;;8.60;99.90;;;;;;5051173;28;20047;-76
2022/05/31 01:37:11;;;;;;;3.13;2.28;;;8.60;99.90;;;;;;5067418;28;20035;-77
2022/05/31 01:39:37;;;;;;;4.05;2.45;;;8.60;99.90;;;;;;5066992;28;20103;-76
2022/05/31 01:42:09;;;;;;;4.32;2.35;;;8.60;99.90;;;;;;5067496;28;20025;-77
2022/05/31 01:44:41;;;;;;;4.70;2.15;;;8.60;99.90;;;;;;5068635;28;20496;-77
2022/05/31 01:47:07;;;;;;;6.63;2.63;;;8.60;99.90;;;;;;5068471;28;20107;-77
2022/05/31 01:49:35;;;;;;;2.50;2.10;;;8.50;99.90;;;;;;5066482;28;20120;-77
2022/05/31 01:52:02;;;;;;;3.33;2.22;;;8.50;99.90;;;;;;5067464;28;20021;-77
2022/05/31 01:54:28;;;;;;;4.28;2.47;;;8.40;99.90;;;;;;5067261;28;20029;-77
2022/05/31 01:56:59;;;;;;;3.15;1.80;;;8.40;99.90;;;;;;5068405;28;20024;-77
2022/05/31 01:59:26;;;;;;;4.97;2.00;;;8.30;99.90;;;;;;5067026;28;20451;-77
2022/05/31 02:01:52;;;;;;;4.22;2.20;;;8.20;99.90;;;;;;5068038;28;20419;-77
2022/05/31 02:04:18;;;;;;;2.55;1.80;;;8.20;99.90;;;;;;5067056;28;20017;-77
2022/05/31 02:06:45;;;;;;;3.45;2.20;;;8.10;99.90;;;;;;5067182;28;20024;-77
2022/05/31 02:09:12;;;;;;;5.38;1.98;;;8.10;99.90;;;;;;5067070;28;20477;-77
2022/05/31 02:11:39;;;;;;;6.15;2.38;;;8.00;99.90;;;;;;5066489;28;20351;-77
2022/05/31 02:14:06;;;;;;;3.90;2.40;;;8.00;99.90;;;;;;5066953;28;20389;-77
2022/05/31 02:16:32;;;;;;;2.78;1.90;;;8.00;99.90;;;;;;5066877;28;20421;-77
2022/05/31 02:19:23;;;;;;;4.28;2.70;;;8.00;99.90;;;;;;5068253;28;20035;-77
2022/05/31 02:21:50;;;;;;;3.40;1.80;;;8.00;99.90;;;;;;5066850;28;20020;-77
2022/05/31 02:24:15;;;;;;;3.08;2.30;;;8.00;99.90;;;;;;5068608;28;20020;-77
2022/05/31 02:26:42;;;;;;;6.03;2.72;;;8.00;99.90;;;;;;5071857;28;20031;-77
2022/05/31 02:29:10;;;;;;;4.97;2.65;;;8.00;99.90;;;;;;5071953;28;20115;-79
2022/05/31 02:31:37;;;;;;;3.40;2.22;;;7.90;99.90;;;;;;5070190;28;20127;-77
2022/05/31 02:34:04;;;;;;;1.98;1.52;;;7.90;99.90;;;;;;5070563;28;20032;-77
2022/05/31 02:36:29;;;;;;;3.20;2.05;;;7.90;99.90;;;;;;5070550;28;20445;-77
2022/05/31 02:38:55;;;;;;;3.25;2.08;;;7.90;99.90;;;;;;5070476;28;20029;-77
2022/05/31 02:41:21;;;;;;;1.90;1.70;;;7.80;99.90;;;;;;5069979;28;20025;-77
2022/05/31 02:43:48;;;;;;;2.75;2.35;;;7.80;99.90;;;;;;5070509;28;20064;-77
2022/05/31 02:46:13;;;;;;;2.92;2.30;;;7.80;99.90;;;;;;5071919;28;20037;-77
2022/05/31 02:48:39;;;;;;;5.13;2.28;;;7.70;99.90;;;;;;5072077;28;20028;-77
2022/05/31 02:51:04;;;;;;;3.67;2.10;;;7.70;99.90;;;;;;5073905;28;20029;-77
2022/05/31 02:53:30;;;;;;;2.58;2.05;;;7.70;99.90;;;;;;5077324;28;20094;-77
2022/05/31 02:55:57;;;;;;;3.95;2.17;;;7.60;99.90;;;;;;5077380;28;20024;-77
2022/05/31 02:58:26;;;;;;;5.32;2.60;;;7.60;99.90;;;;;;5076455;28;20445;-77
2022/05/31 03:00:53;;;;;;;3.97;2.72;;;7.60;99.90;;;;;;5072698;28;20175;-76
2022/05/31 03:03:19;;;;;;;6.18;2.50;;;7.60;99.90;;;;;;5071563;28;20017;-78
2022/05/31 03:05:45;;;;;;;6.57;2.90;;;7.70;99.90;;;;;;5074412;28;20035;-79
2022/05/31 03:08:12;;;;;;;3.40;2.33;;;7.70;99.90;;;;;;5072943;28;20032;-79
2022/05/31 03:10:44;;;;;;;5.60;2.58;;;7.70;99.90;;;;;;5073782;28;20084;-78
2022/05/31 03:13:11;;;;;;;3.78;2.40;;;7.80;99.90;;;;;;5072363;28;20032;-78
2022/05/31 03:15:37;;;;;;;4.10;2.60;;;7.80;99.90;;;;;;5072050;28;20043;-78
2022/05/31 03:18:08;;;;;;;3.72;2.00;;;7.80;99.90;;;;;;5072450;28;20497;-77
2022/05/31 03:20:38;;;;;;;3.35;3.05;;;7.80;99.90;;;;;;5069549;28;20021;-78
2022/05/31 03:23:11;;;;;;;2.55;2.30;;;7.80;99.90;;;;;;5071340;28;20112;-77
2022/05/31 03:25:39;;;;;;;4.85;2.38;;;7.80;99.90;;;;;;5070269;28;20028;-77
2022/05/31 03:28:06;;;;;;;2.70;2.00;;;7.80;99.90;;;;;;5071513;28;20024;-78
2022/05/31 03:30:34;;;;;;;4.93;2.30;;;7.80;99.90;;;;;;5070081;28;20090;-77
2022/05/31 03:33:01;;;;;;;3.97;2.28;;;7.80;99.90;;;;;;5071580;28;20024;-78
2022/05/31 03:35:27;;;;;;;3.00;2.65;;;7.80;99.90;;;;;;5070539;28;20036;-78
2022/05/31 03:37:52;;;;;;;4.43;2.25;;;7.70;99.90;;;;;;5070331;28;20021;-78
2022/05/31 03:43:03;;;;;;;5.32;2.33;;;7.80;99.90;;;;;;5071988;28;20039;-79
2022/05/31 03:45:38;;;;;;;2.35;1.80;;;7.80;99.90;;;;;;5071360;28;20023;-78
2022/05/31 03:48:04;;;;;;;5.70;2.22;;;7.90;99.90;;;;;;5071078;28;20028;-78
2022/05/31 03:50:30;;;;;;;3.63;2.50;;;7.90;99.90;;;;;;5069455;28;20021;-79
2022/05/31 03:52:56;;;;;;;3.88;2.30;;;7.90;99.90;;;;;;5069619;28;20078;-78
2022/05/31 03:55:21;;;;;;;3.40;2.60;;;7.90;99.90;;;;;;5069646;28;20024;-79
2022/05/31 03:57:48;;;;;;;3.13;2.50;;;7.90;99.90;;;;;;5069283;28;20024;-78
2022/05/31 04:00:14;;;;;;;3.95;2.70;;;7.90;99.90;;;;;;5068674;28;20024;-79
2022/05/31 04:02:40;;;;;;;3.95;2.45;;;7.90;99.90;;;;;;5070879;28;20060;-78
2022/05/31 04:05:06;;;;;;;5.82;2.88;;;7.90;99.90;;;;;;5069143;28;20056;-78
2022/05/31 04:07:32;;;;;;;5.28;2.53;;;7.90;99.90;;;;;;5069254;28;20644;-80
2022/05/31 04:09:57;;;;;;;5.03;2.70;;;8.00;99.90;;;;;;5068593;28;20152;-79
2022/05/31 04:12:23;;;;;;;4.30;2.75;;;7.90;99.90;;;;;;5069277;28;20492;-79
2022/05/31 04:14:48;;;;;;;2.97;2.60;;;7.90;99.90;;;;;;5070313;28;20020;-80
2022/05/31 04:17:14;;;;;;;4.78;2.55;;;8.00;99.90;;;;;;5069280;28;20028;-78
2022/05/31 04:19:39;;;;;;;5.53;2.72;;;7.90;99.90;;;;;;5069971;28;20473;-80
2022/05/31 04:22:05;;;;;;;7.55;2.95;;;8.00;99.90;;;;;;5068898;28;20018;-79
2022/05/31 04:24:32;;;;;;;5.85;3.00;;;7.90;99.90;;;;;;5068981;28;20153;-78
2022/05/31 04:27:32;;;;;;;7.18;3.03;;;8.00;99.90;;;;;;5068647;28;20099;-78
2022/05/31 04:29:57;;;;;;;4.65;3.05;;;8.00;99.90;;;;;;5068042;28;20200;-78
2022/05/31 04:32:23;;;;;;;4.15;2.67;;;8.00;99.90;;;;;;5068499;28;20020;-78
2022/05/31 04:34:49;;;;;;;6.43;2.67;;;8.10;99.90;;;;;;5068596;28;20028;-78
2022/05/31 04:37:14;;;;;;;3.88;3.00;;;8.10;99.90;;;;;;5069638;28;20025;-78
2022/05/31 04:39:40;;;;;;;4.35;2.70;;;8.10;99.90;;;;;;5067585;28;20021;-78
2022/05/31 04:42:08;;;;;;;3.92;3.05;;;8.20;99.90;;;;;;5068269;28;20117;-80
2022/05/31 04:44:34;;;;;;;5.72;2.85;;;8.20;99.90;;;;;;5069770;28;20025;-79
2022/05/31 04:46:59;;;;;;;3.28;2.47;;;8.30;99.90;;;;;;5069849;28;20028;-80
2022/05/31 04:49:25;;;;;;;4.28;2.45;;;8.30;99.90;;;;;;5067587;28;20481;-80
2022/05/31 04:51:51;;;;;;;8.10;2.67;;;8.30;99.90;;;;;;5067851;28;20028;-79
2022/05/31 04:54:17;;;;;;;3.22;2.60;;;8.40;99.90;;;;;;5065442;28;20025;-79
2022/05/31 04:56:43;;;;;;;4.90;2.33;;;8.40;99.90;;;;;;5064991;28;20060;-80
2022/05/31 04:59:09;;;;;;;3.85;2.42;;;8.40;99.90;;;;;;5068023;28;20067;-80
2022/05/31 05:01:37;;;;;;;4.53;2.78;;;8.50;99.90;;;;;;5067863;28;20031;-80
2022/05/31 05:04:03;;;;;;;5.32;2.90;;;8.50;99.90;;;;;;5068529;28;20505;-80
2022/05/31 05:06:28;;;;;;;6.20;2.38;;;8.50;99.90;;;;;;5068455;28;20025;-79
2022/05/31 05:08:55;;;;;;;4.45;2.90;;;8.60;99.90;;;;;;5069535;28;20032;-80
2022/05/31 05:11:22;;;;;;;3.50;2.40;;;8.60;99.90;;;;;;5067430;28;20074;-80
2022/05/31 05:13:48;;;;;;;5.95;2.70;;;8.70;99.90;;;;;;5067902;28;20520;-79
2022/05/31 05:16:15;;;;;;;6.25;2.65;;;8.80;99.90;;;;;;5067764;28;20032;-80
2022/05/31 05:18:41;;;;;;;2.85;2.00;;;8.90;99.90;;;;;;5069677;28;20021;-80
2022/05/31 05:21:10;;;;;;;4.07;2.20;;;9.00;99.90;;;;;;5067404;28;20024;-80
2022/05/31 05:23:35;;;;;;;4.53;2.78;;;9.10;99.90;;;;;;5067882;28;20070;-80
2022/05/31 05:26:01;;;;;;;3.38;2.30;;;9.20;99.90;;;;;;5067798;28;20025;-80
2022/05/31 05:31:19;;;;;;;4.40;2.20;;;9.40;99.90;;;;;;5068824;28;20119;-80
2022/05/31 05:33:45;;;;;;;3.95;2.22;;;9.50;99.90;;;;;;5067903;28;20081;-80
2022/05/31 05:36:10;;;;;;;4.47;2.85;;;9.60;99.90;;;;;;5068994;28;20028;-79
2022/05/31 05:38:36;;;;;;;4.10;2.20;;;9.70;99.90;;;;;;5067600;28;20037;-79
2022/05/31 05:41:02;;;;;;;19.85;9.82;;;9.80;99.90;;;;;;5067329;28;20025;-78
2022/05/31 05:43:27;;;;;;;21.85;13.85;;;9.90;99.90;;;;;;5068763;28;20086;-79
2022/05/31 05:45:56;;;;;;;28.65;15.75;;;10.00;99.90;;;;;;5074218;28;20028;-89
2022/05/31 05:48:22;;;;;;;19.48;11.68;;;10.20;99.90;;;;;;5079147;28;20123;-90
2022/05/31 05:50:50;;;;;;;9.65;5.43;;;10.20;99.90;;;;;;5078069;28;20071;-89
2022/05/31 05:53:16;;;;;;;6.75;3.75;;;10.40;99.90;;;;;;5076660;28;20025;-90
2022/05/31 05:55:45;;;;;;;4.75;2.50;;;10.50;99.90;;;;;;5071577;28;20025;-90
2022/05/31 05:58:10;;;;;;;5.22;2.25;;;10.60;99.90;;;;;;5066231;28;20078;-90
2022/05/31 06:00:50;;;;;;;6.30;1.90;;;10.80;99.90;;;;;;5073894;28;20263;-89
2022/05/31 06:03:34;;;;;;;3.77;1.80;;;10.90;99.90;;;;;;5082241;28;20024;-90
2022/05/31 06:06:13;;;;;;;5.40;2.47;;;11.10;99.90;;;;;;5088357;28;20032;-90
2022/05/31 06:08:56;;;;;;;6.15;2.03;;;11.20;99.90;;;;;;5087629;28;20024;-90
2022/05/31 06:12:09;;;;;;;5.40;2.17;;;11.40;99.90;;;;;;5080642;28;20104;-89
2022/05/31 06:15:11;;;;;;;6.97;2.40;;;11.60;99.90;;;;;;5088607;28;20242;-89
2022/05/31 06:17:43;;;;;;;4.10;2.10;;;11.80;99.90;;;;;;5089751;28;20028;-90
2022/05/31 06:20:10;;;;;;;5.28;2.90;;;11.90;99.90;;;;;;5088316;28;20024;-89
2022/05/31 06:22:43;;;;;;;4.55;2.08;;;12.00;99.90;;;;;;5087499;28;20021;-89
2022/05/31 06:25:15;;;;;;;5.40;2.40;;;12.10;99.90;;;;;;5087144;28;20074;-89
2022/05/31 06:27:41;;;;;;;3.92;2.30;;;12.20;99.90;;;;;;5061337;28;20033;-82
2022/05/31 06:30:11;;;;;;;3.22;1.75;;;12.20;99.90;;;;;;5072265;28;20384;-80
2022/05/31 06:32:36;;;;;;;4.88;1.95;;;12.20;99.90;;;;;;5074167;28;20028;-80
2022/05/31 06:35:05;;;;;;;6.70;2.53;;;12.20;99.90;;;;;;5073009;28;20035;-79
2022/05/31 06:37:31;;;;;;;5.07;1.88;;;12.10;99.90;;;;;;5072371;28;20081;-80
2022/05/31 06:39:59;;;;;;;3.95;2.28;;;12.10;99.90;;;;;;5071546;28;20020;-80
2022/05/31 06:42:25;;;;;;;7.43;2.22;;;12.10;99.90;;;;;;5072501;28;20027;-80
2022/05/31 06:44:54;;;;;;;8.32;2.50;;;12.10;99.90;;;;;;5070824;28;20024;-80
2022/05/31 06:47:22;;;;;;;3.85;2.03;;;12.20;99.90;;;;;;5072240;28;20081;-79
2022/05/31 06:49:51;;;;;;;5.88;2.03;;;12.20;99.90;;;;;;5071886;28;20115;-79
2022/05/31 06:57:48;;;;;;;5.85;2.70;;;12.50;99.90;;;;;;5072573;28;20055;-79
2022/05/31 07:00:18;;;;;;;5.35;2.00;;;12.60;99.90;;;;;;5071966;28;20111;-79
2022/05/31 07:02:44;;;;;;;5.78;2.08;;;12.70;99.90;;;;;;5070932;28;20498;-80
2022/05/31 07:05:12;;;;;;;4.68;1.77;;;12.80;99.90;;;;;;5071828;28;20106;-80
2022/05/31 07:07:38;;;;;;;7.20;1.83;;;12.90;99.90;;;;;;5071949;28;20074;-79
2022/05/31 07:10:06;;;;;;;1.90;1.42;;;13.10;99.90;;;;;;5069840;28;20500;-79
2022/05/31 07:12:32;;;;;;;4.63;1.63;;;13.10;99.90;;;;;;5069867;28;20021;-80
2022/05/31 07:14:58;;;;;;;3.35;1.60;;;13.10;99.90;;;;;;5071556;28;20032;-80
2022/05/31 07:17:23;;;;;;;5.82;1.83;;;13.20;99.90;;;;;;5070114;28;20466;-80
2022/05/31 07:19:49;;;;;;;1.98;1.30;;;13.20;99.90;;;;;;5071137;28;20036;-80
2022/05/31 07:22:15;;;;;;;2.78;1.30;;;13.30;99.90;;;;;;5069769;28;20569;-80
2022/05/31 07:24:41;;;;;;;2.25;1.30;;;13.50;99.90;;;;;;5071434;28;20028;-80
2022/05/31 07:27:06;;;;;;;3.88;1.65;;;13.70;99.50;;;;;;5069819;28;20255;-80
2022/05/31 07:29:32;;;;;;;4.47;1.50;;;13.90;99.90;;;;;;5069179;28;20071;-80
2022/05/31 07:31:58;;;;;;;4.15;1.33;;;14.00;99.90;;;;;;5069709;28;20028;-81
2022/05/31 07:34:23;;;;;;;6.28;1.90;;;14.10;99.90;;;;;;5069693;28;20044;-80
2022/05/31 07:36:50;;;;;;;3.00;2.25;;;14.30;99.90;;;;;;5070063;28;20033;-79
2022/05/31 07:39:18;;;;;;;21.38;14.60;;;14.40;99.40;;;;;;5069238;28;20028;-80
2022/05/31 07:41:45;;;;;;;16.65;11.10;;;14.60;99.90;;;;;;5070379;28;20028;-88
2022/05/31 07:44:11;;;;;;;4.60;1.77;;;14.80;99.10;;;;;;5072115;28;20032;-88
2022/05/31 07:46:38;;;;;;;3.97;1.38;;;15.10;97.00;;;;;;5072111;28;20021;-88
2022/05/31 07:49:04;;;;;;;5.03;1.42;;;15.30;97.90;;;;;;5075077;28;20111;-88
2022/05/31 07:51:29;;;;;;;4.78;1.80;;;15.40;96.10;;;;;;5072774;28;20111;-88
2022/05/31 07:53:55;;;;;;;5.65;1.60;;;15.60;96.60;;;;;;5075034;28;20024;-88
2022/05/31 07:56:21;;;;;;;2.03;1.25;;;15.90;94.30;;;;;;5073467;28;20020;-89
2022/05/31 07:58:48;;;;;;;2.83;1.55;;;16.00;94.00;;;;;;5074895;28;20028;-89
2022/05/31 08:01:17;;;;;;;2.08;1.30;;;16.20;95.70;;;;;;5069900;28;20051;-80
2022/05/31 08:03:44;;;;;;;2.67;1.60;;;16.40;93.40;;;;;;5070059;28;20033;-81
2022/05/31 08:06:13;;;;;;;4.05;1.60;;;16.60;93.80;;;;;;5069442;28;20477;-81
2022/05/31 08:08:38;;;;;;;3.05;1.30;;;16.90;93.00;;;;;;5069480;28;20093;-80
2022/05/31 08:11:11;;;;;;;4.85;1.40;;;17.30;90.70;;;;;;5070103;28;20025;-80
2022/05/31 08:13:37;;;;;;;2.60;1.20;;;17.40;89.70;;;;;;5069417;28;20048;-80
2022/05/31 08:16:05;;;;;;;5.00;1.00;;;17.60;90.40;;;;;;5069362;28;20605;-81
2022/05/31 08:18:31;;;;;;;1.10;0.80;;;18.90;89.70;;;;;;5070503;28;20060;-81
2022/05/31 08:21:05;;;;;;;2.88;1.00;;;20.70;81.30;;;;;;5069934;28;20580;-81
2022/05/31 08:23:32;;;;;;;1.52;0.80;;;22.80;71.30;;;;;;5068638;28;20503;-81
2022/05/31 08:25:59;;;;;;;1.95;0.80;;;23.50;65.90;;;;;;5069190;28;20067;-81
2022/05/31 08:28:24;;;;;;;3.53;0.93;;;24.50;62.50;;;;;;5068888;28;20166;-81
2022/05/31 08:30:58;;;;;;;3.97;1.10;;;25.00;57.20;;;;;;5065140;28;20443;-80
2022/05/31 08:33:25;;;;;;;2.42;1.17;;;26.00;50.90;;;;;;5060684;28;20032;-80
2022/05/31 08:35:51;;;;;;;2.28;0.90;;;26.70;50.20;;;;;;5058098;28;20021;-81
2022/05/31 08:38:17;;;;;;;2.00;1.15;;;27.20;48.70;;;;;;5063356;28;20040;-80
2022/05/31 08:40:53;;;;;;;4.15;1.05;;;27.70;47.70;;;;;;5060226;28;20017;-80
2022/05/31 08:43:24;;;;;;;1.60;0.70;;;28.70;46.10;;;;;;5059673;28;20025;-80
2022/05/31 08:45:57;;;;;;;1.65;0.85;;;28.60;43.50;;;;;;5070953;28;20016;-80
2022/05/31 08:48:39;;;;;;;1.25;0.80;;;28.60;44.60;;;;;;5068239;28;20021;-80
2022/05/31 08:57:03;;;;;;;1.25;0.82;;;28.80;39.60;;;;;;5060569;28;20040;-80
2022/05/31 08:59:36;;;;;;;3.75;1.83;;;28.50;40.50;;;;;;5060054;28;20025;-80
2022/05/31 09:02:07;;;;;;;3.60;0.90;;;26.70;44.00;;;;;;5057346;28;20017;-81
2022/05/31 09:04:43;;;;;;;0.98;0.80;;;26.30;42.90;;;;;;5059600;28;20025;-80
2022/05/31 09:07:19;;;;;;;1.50;0.70;;;25.10;43.70;;;;;;5061792;28;20017;-80
2022/05/31 09:09:57;;;;;;;2.72;0.75;;;23.60;46.90;;;;;;5059428;28;20028;-80
2022/05/31 09:12:32;;;;;;;2.05;1.15;;;22.60;48.80;;;;;;5060518;28;20012;-80
2022/05/31 09:15:10;;;;;;;4.43;1.35;;;22.50;49.20;;;;;;5057753;28;20108;-80
2022/05/31 09:17:42;;;;;;;5.10;1.17;;;23.20;48.60;;;;;;5056616;28;20178;-80
2022/05/31 09:20:28;;;;;;;4.70;1.40;;;23.50;45.90;;;;;;5056954;28;20272;-80
2022/05/31 09:22:54;;;;;;;3.10;1.10;;;23.80;45.70;;;;;;5044849;28;20029;-80
2022/05/31 09:25:20;;;;;;;2.55;1.08;;;24.70;44.80;;;;;;5056347;28;20300;-80
2022/05/31 09:27:48;;;;;;;1.20;0.90;;;25.70;46.20;;;;;;5057920;28;20277;-80
2022/05/31 09:30:29;;;;;;;2.90;1.40;;;27.10;44.70;;;;;;5059178;28;20086;-81
2022/05/31 09:33:04;;;;;;;2.53;1.40;;;28.30;45.10;;;;;;5061358;28;20025;-81
2022/05/31 09:36:11;;;;;;;3.60;1.52;;;29.40;40.10;;;;;;5055791;28;20052;-81
2022/05/31 09:38:40;;;;;;;3.45;1.77;;;27.40;40.10;;;;;;5046733;28;20041;-80
2022/05/31 09:41:14;;;;;;;1.63;1.20;;;27.00;38.40;;;;;;5057389;28;20056;-81
2022/05/31 09:44:06;;;;;;;2.95;1.38;;;27.60;39.40;;;;;;5058878;28;20017;-80
2022/05/31 09:46:39;;;;;;;110.38;93.75;;;28.70;38.30;;;;;;5059587;28;20025;-80
2022/05/31 09:49:29;;;;;;;13.30;11.65;;;30.00;40.00;;;;;;5057905;28;20024;-82
2022/05/31 09:52:37;;;;;;;3.10;1.35;;;30.20;36.90;;;;;;5055993;28;20031;-90
2022/05/31 09:58:36;;;;;;;2.33;1.13;;;29.20;40.80;;;;;;5063505;28;20032;-90
2022/05/31 10:01:47;;;;;;;2.42;1.15;;;27.50;40.50;;;;;;5061111;28;20024;-90
2022/05/31 10:04:59;;;;;;;;;;;;;;;;;;;;;
2022/05/31 10:29:22;;;;;;;3.15;1.75;;;27.40;41.70;;;;;;4962817;28;20047;-89
2022/05/31 10:39:32;;;;;;;2.92;1.85;;;25.70;43.10;;;;;;5064013;28;20033;-89
2022/05/31 10:42:16;;;;;;;4.63;2.83;;;24.50;46.90;;;;;;5069393;28;20033;-89
2022/05/31 10:45:06;;;;;;;3.30;2.58;;;25.70;46.70;;;;;;5069537;28;20052;-89
2022/05/31 10:47:35;;;;;;;8.27;2.97;;;26.10;42.90;;;;;;5072921;28;20025;-90
2022/05/31 10:50:16;;;;;;;2.85;1.90;;;24.90;43.40;;;;;;5074119;28;20052;-91
2022/05/31 10:53:07;;;;;;;4.60;2.67;;;24.80;46.10;;;;;;5073827;28;20016;-89
2022/05/31 10:56:05;;;;;;;2.83;1.90;;;25.60;43.50;;;;;;5088429;28;20111;-90
2022/05/31 10:59:32;;;;;;;;;;;;;;;;;;;;;
2022/05/31 11:02:37;;;;;;;4.03;1.45;;;26.70;44.00;;;;;;5088615;28;20063;-90
2022/05/31 11:05:52;;;;;;;6.20;1.80;;;27.00;40.90;;;;;;5089923;28;20080;-88
2022/05/31 11:11:30;;;;;;;17.70;12.88;;;25.70;41.60;;;;;;5078394;28;20086;-81
2022/05/31 11:14:33;;;;;;;4.32;1.33;;;26.40;43.70;;;;;;5081152;28;20036;-83
2022/05/31 11:17:20;;;;;;;1.73;1.30;;;28.20;42.50;;;;;;5081820;28;20036;-83
2022/05/31 11:20:27;;;;;;;2.85;1.38;;;28.30;43.30;;;;;;5082600;28;20044;-84
2022/05/31 11:23:30;;;;;;;2.80;1.00;;;27.70;38.80;;;;;;5081230;28;20406;-83
2022/05/31 11:26:21;;;;;;;1.83;1.00;;;28.40;40.00;;;;;;5087117;28;20386;-91
2022/05/31 11:29:16;;;;;;;3.08;1.40;;;29.00;39.70;;;;;;5084852;28;20028;-90
2022/05/31 11:31:41;;;;;;;2.83;1.30;;;30.30;38.80;;;;;;5084848;28;20028;-88
2022/05/31 11:34:10;;;;;;;4.18;1.38;;;30.00;39.50;;;;;;5083024;28;20020;-88
2022/05/31 11:37:12;;;;;;;2.10;1.08;;;29.60;39.50;;;;;;5084058;28;20034;-89
2022/05/31 11:39:57;;;;;;;2.03;1.23;;;29.40;37.80;;;;;;5083314;28;20499;-89
2022/05/31 11:42:47;;;;;;;2.50;1.00;;;29.80;39.80;;;;;;5066132;28;20119;-88
2022/05/31 11:45:51;;;;;;;4.28;1.15;;;30.10;42.10;;;;;;5083755;28;20012;-88
2022/05/31 11:48:56;;;;;;;2.42;1.23;;;30.00;39.20;;;;;;5086057;28;20020;-89
2022/05/31 11:52:13;;;;;;;;;;;;;;;;;;;;;
2022/05/31 11:55:25;;;;;;;2.10;1.27;;;29.60;38.40;;;;;;5078032;28;20104;-89
2022/05/31 11:57:40;;;;;;;6.45;1.60;;;29.10;40.70;;;;;;5071373;28;20104;-88
2022/05/31 12:00:11;;;;;;;3.53;1.60;;;29.10;43.70;;;;;;5071242;28;20078;-89
2022/05/31 12:02:47;;;;;;;6.78;1.50;;;28.50;39.00;;;;;;5071769;28;20021;-89
2022/05/31 12:05:23;;;;;;;2.58;1.30;;;28.10;42.70;;;;;;5065889;28;20103;-88
2022/05/31 12:08:08;;;;;;;4.93;1.40;;;27.40;39.70;;;;;;5069058;28;20029;-88
2022/05/31 12:10:41;;;;;;;3.15;1.38;;;27.60;42.00;;;;;;5070862;28;20034;-89
2022/05/31 12:13:10;;;;;;;2.90;1.63;;;27.10;43.90;;;;;;5071215;28;20119;-89
2022/05/31 12:15:39;;;;;;;2.90;1.57;;;26.60;43.40;;;;;;5070884;28;20120;-88
2022/05/31 12:18:05;;;;;;;3.15;1.60;;;26.10;43.60;;;;;;5070286;28;20536;-89
2022/05/31 12:20:56;;;;;;;1.63;1.02;;;25.00;43.20;;;;;;5070066;28;20116;-89
2022/05/31 12:23:51;;;;;;;9.57;1.75;;;24.10;45.60;;;;;;5070901;28;20030;-88
2022/05/31 12:26:36;;;;;;;2.75;1.65;;;23.70;44.80;;;;;;5054799;28;20044;-89
2022/05/31 12:29:05;;;;;;;5.00;2.08;;;23.40;46.50;;;;;;5071691;28;20046;-88
2022/05/31 12:31:34;;;;;;;4.65;1.80;;;23.60;45.40;;;;;;5070534;28;20020;-89
2022/05/31 12:34:18;;;;;;;5.43;1.80;;;22.60;46.70;;;;;;5070658;28;20024;-89
2022/05/31 12:37:06;;;;;;;3.35;1.70;;;22.40;46.20;;;;;;5071626;28;20375;-89
2022/05/31 12:39:34;;;;;;;4.65;1.75;;;21.90;47.80;;;;;;5069718;28;20111;-88
2022/05/31 12:42:12;;;;;;;4.50;2.00;;;21.90;49.40;;;;;;5070061;28;20021;-88
2022/05/31 12:44:39;;;;;;;5.00;1.70;;;21.60;50.30;;;;;;5070466;28;20035;-90
2022/05/31 12:47:28;;;;;;;6.05;1.90;;;21.60;51.20;;;;;;5073449;28;20027;-90
2022/05/31 12:49:57;;;;;;;2.22;1.58;;;21.60;51.30;;;;;;5072364;28;20034;-90
2022/05/31 12:55:36;;;;;;;4.07;1.65;;;22.20;50.40;;;;;;5082833;28;20465;-90
2022/05/31 12:58:35;;;;;;;134.07;89.05;;;22.90;48.30;;;;;;5071864;28;20036;-77
2022/05/31 13:01:30;;;;;;;13.50;5.05;;;23.50;48.00;;;;;;5073521;28;20024;-88
2022/05/31 13:04:26;;;;;;;3.70;1.58;;;24.40;49.70;;;;;;5083277;28;20417;-88
2022/05/31 13:07:15;;;;;;;4.85;1.70;;;24.90;46.60;;;;;;5068978;28;20028;-89
2022/05/31 13:10:18;;;;;;;2.63;1.88;;;24.70;44.60;;;;;;5083812;28;20033;-87
2022/05/31 13:19:44;;;;;;;3.65;1.60;;;24.70;45.20;;;;;;5070831;28;20044;-89
2022/05/31 13:22:13;;;;;;;;;;;24.20;46.00;;;;;;5064532;28;20077;-90
2022/05/31 13:25:18;;;;;;;4.53;1.65;;;23.90;44.40;;;;;;5091992;28;19978;-91
2022/05/31 13:31:16;;;;;;;7.47;1.85;;;21.90;47.10;;;;;;5078321;28;20040;-82
2022/05/31 13:33:44;;;;;;;3.33;1.70;;;22.20;46.50;;;;;;5080795;28;20059;-80
2022/05/31 13:36:47;;;;;;;3.83;1.67;;;22.00;47.90;;;;;;5081469;28;20092;-80
2022/05/31 13:39:16;;;;;;;4.78;1.88;;;22.20;48.00;;;;;;5077967;28;20093;-80
2022/05/31 13:41:54;;;;;;;5.63;1.52;;;22.10;48.20;;;;;;5077270;28;20114;-80
2022/05/31 13:44:43;;;;;;;7.15;2.13;;;22.00;49.80;;;;;;5077848;28;20021;-79
2022/05/31 13:47:19;;;;;;;2.75;1.73;;;21.60;50.40;;;;;;5078157;28;20037;-82
2022/05/31 13:49:51;;;;;;;2.35;1.60;;;21.40;50.80;;;;;;5061389;28;20039;-80
2022/05/31 13:52:25;;;;;;;4.25;1.95;;;21.40;50.50;;;;;;5080095;28;20542;-80
2022/05/31 13:55:06;;;;;;;2.30;1.65;;;21.30;51.70;;;;;;5079616;28;20021;-80
2022/05/31 13:57:32;;;;;;;1.80;1.48;;;21.30;52.60;;;;;;5078137;28;20031;-80
2022/05/31 14:00:00;;;;;;;5.22;2.15;;;21.40;53.30;;;;;;5075517;28;20095;-81
2022/05/31 14:02:52;;;;;;;4.78;2.00;;;21.30;50.70;;;;;;5078941;28;20091;-82
2022/05/31 14:05:24;;;;;;;5.10;1.77;;;21.20;49.90;;;;;;5077174;28;20017;-82
2022/05/31 14:07:50;;;;;;;5.85;2.13;;;21.40;49.40;;;;;;5077189;28;20092;-80
2022/05/31 14:10:23;;;;;;;5.45;1.60;;;21.50;50.40;;;;;;5072100;28;20021;-81
2022/05/31 14:12:56;;;;;;;5.93;1.75;;;21.40;50.00;;;;;;5069915;28;20026;-82
2022/05/31 14:15:29;;;;;;;3.22;2.15;;;21.20;48.40;;;;;;5055163;28;20026;-80
2022/05/31 14:18:10;;;;;;;4.50;1.67;;;21.00;49.10;;;;;;5054735;28;20102;-81
2022/05/31 14:20:44;;;;;;;2.67;1.73;;;21.30;51.10;;;;;;5069503;28;20025;-80
2022/05/31 14:23:18;;;;;;;4.53;1.80;;;21.50;51.90;;;;;;5075590;28;20033;-81
2022/05/31 14:25:49;;;;;;;3.33;1.63;;;21.70;50.10;;;;;;5062257;28;20159;-81
2022/05/31 14:28:17;;;;;;;3.38;1.67;;;21.90;50.90;;;;;;5073216;28;20112;-81
2022/05/31 14:31:09;;;;;;;7.60;1.88;;;22.20;48.70;;;;;;5077905;28;20051;-81
2022/05/31 14:33:37;;;;;;;2.63;1.58;;;22.60;51.30;;;;;;5072596;28;20132;-80
2022/05/31 14:36:06;;;;;;;3.53;2.08;;;22.90;50.30;;;;;;5075932;28;20025;-80